Погода Тиянгуана неделю

Сеара, Бразилия

15 - 21 июля
  • 15июля
    Сегодня
    +19°
    +27°
    Практически безоблачно
    ВремяПогодаТемператураВлажностьДавлениеВетер, м/сВероятность осадков
    00:00Ясно и безоблачно+23°C71 %711 мм3.7 м/с5 %
    03:00Практически безоблачно+21°C86 %710 мм4.3 м/с5 %
    06:00Практически безоблачно+20°C91 %711 мм5.2 м/с9 %
    09:00Практически безоблачно+23°C72 %712 мм6.7 м/с4 %
    12:00Практически безоблачно+25°C57 %712 мм6.9 м/с5 %
    15:00Практически безоблачно+26°C50 %711 мм5.2 м/с5 %
    18:00Практически безоблачно+24°C62 %711 мм2.4 м/с5 %
    21:00Ясно и безоблачно+23°C63 %712 мм2.2 м/с5 %
  • 16июля
    Вторник
    +19°
    +27°
    Ясно и безоблачно
    ВремяПогодаТемператураВлажностьДавлениеВетер, м/сВероятность осадков
    00:00Ясно и безоблачно+21°C70 %711 мм1.4 м/с5 %
    03:00Ясно и безоблачно+20°C86 %710 мм2.8 м/с2 %
    06:00Ясно и безоблачно+20°C91 %711 мм5.5 м/с1 %
    09:00Ясно и безоблачно+23°C57 %712 мм7.0 м/с5 %
    12:00Ясно и безоблачно+26°C44 %712 мм5.6 м/с5 %
    15:00Ясно и безоблачно+26°C39 %711 мм3.8 м/с5 %
    18:00Ясно и безоблачно+24°C56 %711 мм2.1 м/с5 %
    21:00Ясно и безоблачно+22°C57 %712 мм3.4 м/с5 %
  • 17июля
    Среда
    +19°
    +27°
    Ясно и безоблачно
    ВремяПогодаТемператураВлажностьДавлениеВетер, м/сВероятность осадков
    00:00Ясно и безоблачно+22°C57 %712 мм2.8 м/с5 %
    03:00Ясно и безоблачно+20°C66 %711 мм2.7 м/с5 %
    06:00Практически безоблачно+19°C96 %711 мм4.2 м/с5 %
    09:00Практически безоблачно+23°C70 %713 мм7.1 м/с5 %
    12:00Ясно и безоблачно+25°C58 %712 мм5.8 м/с5 %
    15:00Ясно и безоблачно+26°C49 %710 мм5.0 м/с5 %
    18:00Ясно и безоблачно+25°C61 %711 мм3.0 м/с5 %
    21:00Ясно и безоблачно+23°C62 %711 мм3.3 м/с5 %
  • 18июля
    Четверг
    +19°
    +28°
    Ясно и безоблачно
    ВремяПогодаТемператураВлажностьДавлениеВетер, м/сВероятность осадков
    00:00Ясно и безоблачно+23°C60 %711 мм2.9 м/с5 %
    03:00Ясно и безоблачно+20°C85 %710 мм2.9 м/с5 %
    06:00Пасмурно, сплошная облачность+20°C98 %711 мм4.0 м/с9 %
    09:00Практически безоблачно+23°C73 %712 мм6.2 м/с4 %
    12:00Ясно и безоблачно+26°C57 %712 мм5.2 м/с5 %
    15:00Ясно и безоблачно+27°C50 %710 мм4.0 м/с5 %
    18:00Ясно и безоблачно+25°C62 %711 мм2.0 м/с5 %
    21:00Ясно и безоблачно+23°C62 %712 мм2.7 м/с13 %
  • 19июля
    Пятница
    +19°
    +28°
    Практически безоблачно
    ВремяПогодаТемператураВлажностьДавлениеВетер, м/сВероятность осадков
    00:00Ясно и безоблачно+22°C64 %711 мм2.2 м/с5 %
    03:00Ясно и безоблачно+20°C77 %710 мм2.9 м/с4 %
    06:00Пасмурно, сплошная облачность+20°C98 %711 мм4.6 м/с10 %
    09:00Ясно и безоблачно+23°C73 %712 мм6.1 м/с7 %
    12:00Ясно и безоблачно+26°C56 %712 мм5.2 м/с5 %
    15:00Практически безоблачно+28°C48 %710 мм4.2 м/с5 %
    18:00Ясно и безоблачно+26°C59 %711 мм2.3 м/с3 %
    21:00Ясно и безоблачно+23°C63 %711 мм1.9 м/с9 %
Мы используем cookies
Соглашаюсь